createdAt,value
2022-08-05T00:00:02.828Z,1013.31
2022-08-05T00:15:53.923Z,1013.35
2022-08-05T00:30:03.124Z,1013.35
2022-08-05T00:45:05.200Z,1013.28
2022-08-05T01:00:03.448Z,1013.24
2022-08-05T01:15:35.365Z,1013.11
2022-08-05T01:30:53.834Z,1013.21
2022-08-05T01:45:08.663Z,1013.04
2022-08-05T02:00:05.390Z,1013.08
2022-08-05T02:15:06.773Z,1013.04
2022-08-05T02:30:00.771Z,1013.11
2022-08-05T02:45:01.875Z,1013.04
2022-08-05T03:00:01.835Z,1012.97
2022-08-05T03:15:02.835Z,1012.91
2022-08-05T03:30:08.388Z,1012.97
2022-08-05T03:45:21.707Z,1012.87
2022-08-05T04:00:01.789Z,1012.91
2022-08-05T04:15:01.912Z,1012.91
2022-08-05T04:30:00.100Z,1012.94
2022-08-05T04:45:07.342Z,1013.04
2022-08-05T05:00:05.601Z,1013.04
2022-08-05T05:15:03.695Z,1012.87
2022-08-05T05:30:06.590Z,1012.87
2022-08-05T05:45:07.620Z,1012.77
2022-08-05T06:00:01.082Z,1012.74
2022-08-05T06:15:03.810Z,1012.74
2022-08-05T06:30:17.846Z,1012.7
2022-08-05T06:45:08.340Z,1012.57
2022-08-05T07:00:01.253Z,1012.47
2022-08-05T07:15:02.152Z,1012.4
2022-08-05T07:30:27.961Z,1012.3
2022-08-05T07:45:09.335Z,1012.23
2022-08-05T08:00:05.238Z,1012.13
2022-08-05T08:15:04.793Z,1012.06
2022-08-05T08:30:03.873Z,1011.99
2022-08-05T08:45:23.173Z,1011.89
2022-08-05T09:00:00.492Z,1011.75
2022-08-05T09:15:06.222Z,1011.52
2022-08-05T09:30:06.698Z,1011.31
2022-08-05T09:45:17.907Z,1011.04
2022-08-05T10:00:04.754Z,1010.94
2022-08-05T10:15:06.182Z,1010.67
2022-08-05T10:31:20.331Z,1010.6
2022-08-05T15:15:06.455Z,1011.25
2022-08-05T15:30:05.751Z,1011.96
2022-08-05T15:45:06.241Z,1012.06
2022-08-05T16:00:02.343Z,1012.84
2022-08-05T16:14:59.920Z,1012.19
2022-08-05T16:30:02.543Z,1012.5
2022-08-05T16:46:03.933Z,1012.6
2022-08-05T17:00:08.524Z,1013.04
2022-08-05T17:15:04.291Z,1012.91
2022-08-05T17:30:12.036Z,1012.7
2022-08-05T17:45:00.271Z,1012.84
2022-08-05T18:00:07.478Z,1013.11
2022-08-05T18:15:08.705Z,1013.31
2022-08-05T18:30:03.919Z,1013.52
2022-08-05T18:45:00.584Z,1013.72
2022-08-05T19:00:11.695Z,1014.13
2022-08-05T19:15:06.208Z,1014.29
2022-08-05T19:30:00.465Z,1014.29
2022-08-05T19:45:08.814Z,1014.26
2022-08-05T20:00:05.395Z,1014.16
2022-08-05T20:15:56.714Z,1014.13
2022-08-05T20:30:01.825Z,1014.09
2022-08-05T20:44:59.985Z,1014.26
2022-08-05T21:00:20.532Z,1014.43
2022-08-05T21:15:05.341Z,1014.26
2022-08-05T21:30:04.487Z,1014.33
2022-08-05T21:45:06.568Z,1014.36
2022-08-05T22:00:11.204Z,1014.4
2022-08-05T22:15:01.463Z,1014.5
2022-08-05T22:30:04.284Z,1014.63
2022-08-05T22:45:06.963Z,1014.63
2022-08-05T23:00:03.665Z,1014.57
2022-08-05T23:15:08.982Z,1014.6
2022-08-05T23:30:00.175Z,1014.46
2022-08-05T23:45:01.350Z,1014.36
